Time;durP1;ratioP1;P1;durP2;ratioP2;P2;SDS_P1;SDS_P2;PMS_P1;PMS_P2;Temp;Humidity;BMP_temperature;BMP_pressure;BME280_temperature;BME280_humidity;BME280_pressure;Samples;Min_cycle;Max_cycle;Signal;HPM_P1;HPM_P2
2022/10/28 00:04:48;;;;;;;;;;;;;;;;;;10502007;28;20015;-82
2022/10/28 00:09:48;;;;;;;;;;;;;;;;;;10515947;28;19917;-81
2022/10/28 00:14:48;;;;;;;;;;;;;;;;;;10512196;28;19924;-80
2022/10/28 00:19:48;;;;;;;;;;;;;;;;;;10523825;28;20085;-81
2022/10/28 00:24:50;;;;;;;;;;;;;;;;;;10517325;28;19920;-80
2022/10/28 00:29:50;;;;;;;;;;;;;;;;;;10510267;28;19942;-79
2022/10/28 00:34:50;;;;;;;;;;;;;;;;;;10517618;28;19935;-81
2022/10/28 00:39:50;;;;;;;;;;;;;;;;;;10505577;28;19924;-80
2022/10/28 00:44:50;;;;;;;;;;;;;;;;;;10523388;28;19935;-81
2022/10/28 00:49:51;;;;;;;;;;;;;;;;;;10511572;28;19923;-81
2022/10/28 00:54:51;;;;;;;;;;;;;;;;;;10524635;28;19929;-82
2022/10/28 00:59:52;;;;;;;;;;;;;;;;;;10518053;28;19947;-83
2022/10/28 01:04:52;;;;;;;;;;;;;;;;;;10554903;28;19905;-83
2022/10/28 01:09:52;;;;;;;;;;;;;;;;;;10567027;28;19905;-82
2022/10/28 01:14:52;;;;;;;;;;;;;;;;;;10541126;28;20426;-82
2022/10/28 01:19:53;;;;;;;;;;;;;;;;;;10555560;28;19978;-80
2022/10/28 01:24:53;;;;;;;;;;;;;;;;;;10532492;28;19918;-79
2022/10/28 01:29:53;;;;;;;;;;;;;;;;;;10521663;28;20336;-79
2022/10/28 01:34:55;;;;;;;;;;;;;;;;;;10512838;28;19943;-80
2022/10/28 01:39:55;;;;;;;;;;;;;;;;;;10513958;28;19921;-81
2022/10/28 01:44:55;;;;;;;;;;;;;;;;;;10523712;28;19916;-83
2022/10/28 01:49:56;;;;;;;;;;;;;;;;;;10512787;28;20395;-82
2022/10/28 01:54:56;;;;;;;;;;;;;;;;;;10521091;28;19932;-81
2022/10/28 01:59:56;;;;;;;;;;;;;;;;;;10514475;28;20520;-79
2022/10/28 02:04:56;;;;;;;;;;;;;;;;;;10509603;28;19924;-79
2022/10/28 02:09:57;;;;;;;;;;;;;;;;;;10522892;28;20061;-80
2022/10/28 02:14:57;;;;;;;;;;;;;;;;;;10551968;28;19935;-80
2022/10/28 02:19:57;;;;;;;;;;;;;;;;;;10555588;28;19920;-80
2022/10/28 02:24:57;;;;;;;;;;;;;;;;;;10516366;28;20335;-81
2022/10/28 02:29:58;;;;;;;;;;;;;;;;;;10522936;28;19920;-85
2022/10/28 02:34:58;;;;;;;;;;;;;;;;;;10522530;28;20001;-83
2022/10/28 02:40:01;;;;;;;;;;;;;;;;;;10547448;28;19919;-83
2022/10/28 02:45:02;;;;;;;;;;;;;;;;;;10512092;28;20322;-82
2022/10/28 02:50:02;;;;;;;;;;;;;;;;;;10511936;28;20355;-83
2022/10/28 02:55:03;;;;;;;;;;;;;;;;;;10512420;28;19935;-81
2022/10/28 03:00:03;;;;;;;;;;;;;;;;;;10514789;28;19917;-82
2022/10/28 03:05:04;;;;;;;;;;;;;;;;;;10502677;28;19932;-83
2022/10/28 03:10:04;;;;;;;;;;;;;;;;;;10516855;28;19916;-78
2022/10/28 03:15:04;;;;;;;;;;;;;;;;;;10503054;28;20329;-78
2022/10/28 03:20:04;;;;;;;;;;;;;;;;;;10506022;28;20299;-77
2022/10/28 03:25:05;;;;;;;;;;;;;;;;;;10512401;28;19931;-78
2022/10/28 03:30:05;;;;;;;;;;;;;;;;;;10521546;28;19942;-76
2022/10/28 03:35:05;;;;;;;;;;;;;;;;;;10515977;28;19938;-78
2022/10/28 03:40:06;;;;;;;;;;;;;;;;;;10527764;28;19924;-81
2022/10/28 03:45:06;;;;;;;;;;;;;;;;;;10545401;28;20350;-79
2022/10/28 03:50:07;;;;;;;;;;;;;;;;;;10533605;28;19924;-79
2022/10/28 03:55:07;;;;;;;;;;;;;;;;;;10508220;28;19935;-80
2022/10/28 04:00:07;;;;;;;;;;;;;;;;;;10508753;28;19923;-81
2022/10/28 04:05:13;;;;;;;;;;;;;;;;;;10524093;28;20237;-82
2022/10/28 04:10:16;;;;;;;;;;;;;;;;;;10529497;28;19918;-81
2022/10/28 04:15:16;;;;;;;;;;;;;;;;;;10503756;28;20692;-80
2022/10/28 04:20:16;;;;;;;;;;;;;;;;;;10510152;28;19924;-82
2022/10/28 04:25:17;;;;;;;;;;;;;;;;;;10514004;28;19932;-79
2022/10/28 04:30:17;;;;;;;;;;;;;;;;;;10517542;28;19920;-79
2022/10/28 04:35:17;;;;;;;;;;;;;;;;;;10509407;28;19939;-78
2022/10/28 04:40:17;;;;;;;;;;;;;;;;;;10509267;28;20265;-79
2022/10/28 04:45:18;;;;;;;;;;;;;;;;;;10519590;28;19920;-79
2022/10/28 04:50:18;;;;;;;;;;;;;;;;;;10517331;28;19917;-78
2022/10/28 04:55:18;;;;;;;;;;;;;;;;;;10516576;28;19947;-80
2022/10/28 05:05:42;;;;;;;;;;;;;;;;;;11352689;22;19925;-80
2022/10/28 05:10:44;;;;;;;;;;;;;;;;;;10399364;28;19968;-82
2022/10/28 05:15:44;;;;;;;;;;;;;;;;;;10429144;28;19921;-81
2022/10/28 05:20:44;;;;;;;;;;;;;;;;;;10435780;28;19925;-81
2022/10/28 05:25:44;;;;;;;;;;;;;;;;;;10438242;28;19925;-80
2022/10/28 05:30:44;;;;;;;;;;;;;;;;;;10395353;28;19922;-81
2022/10/28 05:35:45;;;;;;;;;;;;;;;;;;10386657;28;19929;-81
2022/10/28 05:40:45;;;;;;;;;;;;;;;;;;10403225;28;19925;-85
2022/10/28 05:45:46;;;;;;;;;;;;;;;;;;10379174;28;19918;-79
2022/10/28 05:50:46;;;;;;;;;;;;;;;;;;10390632;28;19921;-80
2022/10/28 05:55:46;;;;;;;;;;;;;;;;;;10382300;28;20044;-81
2022/10/28 06:00:46;;;;;;;;;;;;;;;;;;10366714;28;19917;-77
2022/10/28 06:05:53;;;;;;;;;;;;;;;;;;10374782;28;20139;-79
2022/10/28 06:10:54;;;;;;;;;;;;;;;;;;10380312;28;19917;-79
2022/10/28 06:15:54;;;;;;;;;;;;;;;;;;10382169;28;20024;-79
2022/10/28 06:20:54;;;;;;;;;;;;;;;;;;10373280;28;19928;-78
2022/10/28 06:25:54;;;;;;;;;;;;;;;;;;10376398;28;19926;-78
2022/10/28 06:30:54;;;;;;;;;;;;;;;;;;10374137;28;20445;-81
2022/10/28 06:35:55;;;;;;;;;;;;;;;;;;10376705;28;19952;-78
2022/10/28 06:40:56;;;;;;;;;;;;;;;;;;10373009;28;19921;-81
2022/10/28 06:45:56;;;;;;;;;;;;;;;;;;10354761;28;19921;-81
2022/10/28 06:50:57;;;;;;;;;;;;;;;;;;10389755;28;19922;-80
2022/10/28 06:55:59;;;;;;;;;;;;;;;;;;10382452;28;20832;-82
2022/10/28 07:01:01;;;;;;;;;;;;;;;;;;10377086;28;19939;-80
2022/10/28 07:06:01;;;;;;;;;;;;;;;;;;10357062;28;19937;-85
2022/10/28 07:11:01;;;;;;;;;;;;;;;;;;10369562;28;20377;-83
2022/10/28 07:16:02;;;;;;;;;;;;;;;;;;10374736;28;19929;-82
2022/10/28 07:21:02;;;;;;;;;;;;;;;;;;10373259;28;19991;-82
2022/10/28 07:26:02;;;;;;;;;;;;;;;;;;10376545;28;19992;-81
2022/10/28 07:31:02;;;;;;;;;;;;;;;;;;10370075;28;19921;-82
2022/10/28 07:36:03;;;;;;;;;;;;;;;;;;10369303;28;19936;-77
2022/10/28 07:41:04;;;;;;;;;;;;;;;;;;10369323;28;19931;-81
2022/10/28 07:46:04;;;;;;;;;;;;;;;;;;10377127;28;19992;-82
2022/10/28 07:51:04;;;;;;;;;;;;;;;;;;10378305;28;19925;-81
2022/10/28 07:56:05;;;;;;;;;;;;;;;;;;10393487;28;19933;-83
2022/10/28 08:01:06;;;;;;;;;;;;;;;;;;10410416;28;19905;-85
2022/10/28 08:06:06;;;;;;;;;;;;;;;;;;10410919;28;19921;-82
2022/10/28 08:11:06;;;;;;;;;;;;;;;;;;10406094;28;19917;-84
2022/10/28 08:16:07;;;;;;;;;;;;;;;;;;10387595;28;19932;-83
2022/10/28 08:21:08;;;;;;;;;;;;;;;;;;10400715;28;19925;-84
2022/10/28 08:26:08;;;;;;;;;;;;;;;;;;10399371;28;20206;-81
2022/10/28 08:31:11;;;;;;;;;;;;;;;;;;10397911;28;20289;-85
2022/10/28 08:36:11;;;;;;;;;;;;;;;;;;10379640;28;20028;-83
2022/10/28 08:41:11;;;;;;;;;;;;;;;;;;10421821;28;19907;-85
2022/10/28 08:46:11;;;;;;;;;;;;;;;;;;10402032;28;19917;-82
2022/10/28 08:51:12;;;;;;;;;;;;;;;;;;10375361;28;19923;-82
2022/10/28 08:56:13;;;;;;;;;;;;;;;;;;10383790;28;20388;-81
2022/10/28 09:01:15;;;;;;;;;;;;;;;;;;10378563;28;20340;-81
2022/10/28 09:06:16;;;;;;;;;;;;;;;;;;10388238;28;19961;-82
2022/10/28 09:11:16;;;;;;;;;;;;;;;;;;10402035;28;19927;-82
2022/10/28 09:16:16;;;;;;;;;;;;;;;;;;10433395;28;19936;-82
2022/10/28 09:21:16;;;;;;;;;;;;;;;;;;10401688;28;19921;-82
2022/10/28 09:26:18;;;;;;;;;;;;;;;;;;10391341;28;19997;-82
2022/10/28 09:31:19;;;;;;;;;;;;;;;;;;10387266;28;20380;-84
2022/10/28 09:36:19;;;;;;;;;;;;;;;;;;10382871;28;19940;-82
2022/10/28 09:41:20;;;;;;;;;;;;;;;;;;10369322;28;19927;-83
2022/10/28 09:46:22;;;;;;;;;;;;;;;;;;10384792;28;19928;-83
2022/10/28 09:51:23;;;;;;;;;;;;;;;;;;10382322;28;19972;-83
2022/10/28 09:56:24;;;;;;;;;;;;;;;;;;10383308;28;19961;-82
2022/10/28 10:01:24;;;;;;;;;;;;;;;;;;10399219;28;20087;-81
2022/10/28 10:06:24;;;;;;;;;;;;;;;;;;10407237;28;19917;-79
2022/10/28 10:11:25;;;;;;;;;;;;;;;;;;10413339;28;19933;-78
2022/10/28 10:16:26;;;;;;;;;;;;;;;;;;10413753;28;19928;-79
2022/10/28 10:21:26;;;;;;;;;;;;;;;;;;10420006;28;19921;-81
2022/10/28 10:26:27;;;;;;;;;;;;;;;;;;10421401;28;19990;-81
2022/10/28 10:31:28;;;;;;;;;;;;;;;;;;10409939;28;19929;-80
2022/10/28 10:36:30;;;;;;;;;;;;;;;;;;10401474;28;19963;-80
2022/10/28 10:41:30;;;;;;;;;;;;;;;;;;10415886;28;19917;-80
2022/10/28 10:46:30;;;;;;;;;;;;;;;;;;10426799;28;20134;-81
2022/10/28 10:51:31;;;;;;;;;;;;;;;;;;10440228;28;19988;-81
2022/10/28 10:56:31;;;;;;;;;;;;;;;;;;10434151;28;19932;-80
2022/10/28 11:01:32;;;;;;;;;;;;;;;;;;10347516;28;1766186;-81
2022/10/28 11:06:35;;;;;;;;;;;;;;;;;;10405553;28;20381;-81
2022/10/28 11:11:35;;;;;;;;;;;;;;;;;;10408139;28;19921;-81
2022/10/28 11:16:36;;;;;;;;;;;;;;;;;;10410410;28;20681;-81
2022/10/28 11:21:36;;;;;;;;;;;;;;;;;;10416549;28;19921;-80
2022/10/28 11:26:37;;;;;;;;;;;;;;;;;;10414216;28;19924;-80
2022/10/28 11:31:37;;;;;;;;;;;;;;;;;;10437914;28;19928;-81
2022/10/28 11:36:37;;;;;;;;;;;;;;;;;;10434622;28;20345;-79
2022/10/28 11:41:37;;;;;;;;;;;;;;;;;;10424184;28;20218;-80
2022/10/28 11:46:38;;;;;;;;;;;;;;;;;;10403610;28;20282;-79
2022/10/28 11:51:38;;;;;;;;;;;;;;;;;;10407353;28;19920;-79
2022/10/28 11:56:38;;;;;;;;;;;;;;;;;;10403042;28;19929;-77
2022/10/28 12:01:39;;;;;;;;;;;;;;;;;;10406293;28;20293;-80
2022/10/28 12:06:39;;;;;;;;;;;;;;;;;;10409478;28;20019;-77
2022/10/28 12:11:39;;;;;;;;;;;;;;;;;;10400059;28;19933;-80
2022/10/28 12:16:39;;;;;;;;;;;;;;;;;;10413555;28;19935;-80
2022/10/28 12:21:41;;;;;;;;;;;;;;;;;;10408912;28;19974;-81
2022/10/28 12:26:42;;;;;;;;;;;;;;;;;;10413402;28;19964;-83
2022/10/28 12:31:44;;;;;;;;;;;;;;;;;;10408275;28;19940;-81
2022/10/28 12:36:44;;;;;;;;;;;;;;;;;;10435404;28;19929;-85
2022/10/28 12:41:44;;;;;;;;;;;;;;;;;;10432215;28;19929;-81
2022/10/28 12:46:47;;;;;;;;;;;;;;;;;;10410072;28;19925;-84
2022/10/28 12:51:49;;;;;;;;;;;;;;;;;;10411791;28;19921;-86
2022/10/28 12:56:49;;;;;;;;;;;;;;;;;;10403105;28;19928;-81
2022/10/28 13:01:50;;;;;;;;;;;;;;;;;;10418393;28;20016;-82
2022/10/28 13:06:50;;;;;;;;;;;;;;;;;;10415140;28;19995;-79
2022/10/28 13:11:50;;;;;;;;;;;;;;;;;;10415184;28;20341;-81
2022/10/28 13:16:51;;;;;;;;;;;;;;;;;;10402628;28;19929;-82
2022/10/28 13:21:52;;;;;;;;;;;;;;;;;;10416432;28;19921;-82
2022/10/28 13:26:53;;;;;;;;;;;;;;;;;;10402775;28;19927;-80
2022/10/28 13:31:53;;;;;;;;;;;;;;;;;;10415379;28;20408;-81
2022/10/28 13:36:53;;;;;;;;;;;;;;;;;;10412708;28;19929;-80
2022/10/28 13:41:53;;;;;;;;;;;;;;;;;;10415113;28;19921;-81
2022/10/28 13:46:54;;;;;;;;;;;;;;;;;;10403416;28;20012;-80
2022/10/28 13:51:54;;;;;;;;;;;;;;;;;;10416036;28;19929;-78
2022/10/28 13:56:54;;;;;;;;;;;;;;;;;;10421465;28;20318;-78
2022/10/28 14:01:54;;;;;;;;;;;;;;;;;;10411090;28;19932;-78
2022/10/28 14:06:54;;;;;;;;;;;;;;;;;;10438017;28;19917;-80
2022/10/28 14:11:55;;;;;;;;;;;;;;;;;;10423964;28;20502;-80
2022/10/28 14:16:55;;;;;;;;;;;;;;;;;;10421571;28;19933;-86
2022/10/28 14:22:00;;;;;;;;;;;;;;;;;;10429211;28;19921;-86
2022/10/28 14:27:01;;;;;;;;;;;;;;;;;;10428930;28;19925;-84
2022/10/28 14:32:08;;;;;;;;;;;;;;;;;;10430731;28;19921;-86
2022/10/28 14:37:08;;;;;;;;;;;;;;;;;;10421210;28;19925;-85
2022/10/28 14:42:09;;;;;;;;;;;;;;;;;;10429436;28;19917;-85
2022/10/28 14:47:19;;;;;;;;;;;;;;;;;;10434020;28;19921;-86
2022/10/28 14:52:39;;;;;;;;;;;;;;;;;;10427873;28;20016;-83
2022/10/28 14:57:57;;;;;;;;;;;;;;;;;;10409377;28;19952;-82
2022/10/28 15:02:57;;;;;;;;;;;;;;;;;;10419281;28;20003;-80
2022/10/28 15:07:59;;;;;;;;;;;;;;;;;;10410118;28;19929;-78
2022/10/28 15:12:59;;;;;;;;;;;;;;;;;;10417437;28;19928;-80
2022/10/28 15:17:59;;;;;;;;;;;;;;;;;;10414925;28;19949;-79
2022/10/28 15:22:59;;;;;;;;;;;;;;;;;;10411765;28;20291;-80
2022/10/28 15:28:00;;;;;;;;;;;;;;;;;;10417404;28;20361;-79
2022/10/28 15:33:00;;;;;;;;;;;;;;;;;;10416921;28;19940;-77
2022/10/28 15:38:00;;;;;;;;;;;;;;;;;;10412890;28;19921;-78
2022/10/28 15:43:00;;;;;;;;;;;;;;;;;;10413856;28;19921;-79
2022/10/28 15:48:02;;;;;;;;;;;;;;;;;;10420441;28;19917;-78
2022/10/28 15:53:03;;;;;;;;;;;;;;;;;;10414351;28;19929;-79
2022/10/28 15:58:04;;;;;;;;;;;;;;;;;;10412296;28;19929;-79
2022/10/28 16:03:06;;;;;;;;;;;;;;;;;;10413106;28;20680;-78
2022/10/28 16:08:06;;;;;;;;;;;;;;;;;;10426757;28;19971;-76
2022/10/28 16:13:07;;;;;;;;;;;;;;;;;;10417894;28;19964;-77
2022/10/28 16:18:07;;;;;;;;;;;;;;;;;;10407162;28;19940;-78
2022/10/28 16:23:07;;;;;;;;;;;;;;;;;;10404893;28;19924;-78
2022/10/28 16:28:09;;;;;;;;;;;;;;;;;;10408494;28;20284;-79
2022/10/28 16:33:09;;;;;;;;;;;;;;;;;;10401075;28;20532;-79
2022/10/28 16:38:10;;;;;;;;;;;;;;;;;;10401925;28;19921;-79
2022/10/28 16:43:10;;;;;;;;;;;;;;;;;;10406105;28;19921;-79
2022/10/28 16:48:11;;;;;;;;;;;;;;;;;;10400900;28;19948;-79
2022/10/28 16:53:11;;;;;;;;;;;;;;;;;;10416934;28;19932;-80
2022/10/28 16:58:12;;;;;;;;;;;;;;;;;;10423628;28;19924;-77
2022/10/28 17:03:13;;;;;;;;;;;;;;;;;;10416087;28;19917;-79
2022/10/28 17:08:13;;;;;;;;;;;;;;;;;;10422594;28;20297;-78
2022/10/28 17:13:14;;;;;;;;;;;;;;;;;;10416030;28;19928;-77
2022/10/28 17:18:14;;;;;;;;;;;;;;;;;;10420457;28;19925;-79
2022/10/28 17:23:14;;;;;;;;;;;;;;;;;;10416452;28;19920;-78
2022/10/28 17:28:14;;;;;;;;;;;;;;;;;;10430237;28;19927;-79
2022/10/28 17:33:15;;;;;;;;;;;;;;;;;;10420554;28;19921;-77
2022/10/28 17:38:15;;;;;;;;;;;;;;;;;;10419194;28;20450;-78
2022/10/28 17:43:15;;;;;;;;;;;;;;;;;;10431979;28;19956;-77
2022/10/28 17:48:16;;;;;;;;;;;;;;;;;;10425928;28;19921;-78
2022/10/28 17:53:16;;;;;;;;;;;;;;;;;;10422082;28;19925;-80
2022/10/28 17:58:17;;;;;;;;;;;;;;;;;;10414095;28;19953;-79
2022/10/28 18:03:18;;;;;;;;;;;;;;;;;;10420558;28;20015;-80
2022/10/28 18:08:19;;;;;;;;;;;;;;;;;;10407441;28;19917;-79
2022/10/28 18:13:19;;;;;;;;;;;;;;;;;;10409706;28;19929;-78
2022/10/28 18:18:20;;;;;;;;;;;;;;;;;;10407906;28;19932;-76
2022/10/28 18:23:20;;;;;;;;;;;;;;;;;;10418591;28;19917;-76
2022/10/28 18:28:22;;;;;;;;;;;;;;;;;;10419184;28;20558;-77
2022/10/28 18:33:22;;;;;;;;;;;;;;;;;;10406147;28;20039;-78
2022/10/28 18:38:24;;;;;;;;;;;;;;;;;;10408795;28;20320;-77
2022/10/28 18:43:24;;;;;;;;;;;;;;;;;;10404393;28;19921;-78
2022/10/28 18:48:24;;;;;;;;;;;;;;;;;;10406978;28;19957;-78
2022/10/28 18:53:28;;;;;;;;;;;;;;;;;;10410841;28;19926;-77
2022/10/28 18:58:38;;;;;;;;;;;;;;;;;;10418355;28;19929;-76
2022/10/28 19:03:38;;;;;;;;;;;;;;;;;;10409870;28;19921;-79
2022/10/28 19:08:39;;;;;;;;;;;;;;;;;;10403054;28;19921;-77
2022/10/28 19:13:39;;;;;;;;;;;;;;;;;;10405559;28;19987;-78
2022/10/28 19:18:39;;;;;;;;;;;;;;;;;;10413599;28;19981;-81
2022/10/28 19:23:40;;;;;;;;;;;;;;;;;;10431971;28;20001;-79
2022/10/28 19:28:40;;;;;;;;;;;;;;;;;;10417735;28;19921;-78
2022/10/28 19:33:42;;;;;;;;;;;;;;;;;;10412276;28;20012;-79
2022/10/28 19:38:42;;;;;;;;;;;;;;;;;;10413020;28;19921;-79
2022/10/28 19:43:42;;;;;;;;;;;;;;;;;;10414880;28;19921;-81
2022/10/28 19:48:42;;;;;;;;;;;;;;;;;;10417195;28;19928;-80
2022/10/28 19:53:43;;;;;;;;;;;;;;;;;;10417270;28;20265;-80
2022/10/28 19:58:43;;;;;;;;;;;;;;;;;;10416041;28;19925;-80
2022/10/28 20:03:45;;;;;;;;;;;;;;;;;;10409605;28;19917;-79
2022/10/28 20:08:45;;;;;;;;;;;;;;;;;;10414055;28;19917;-77
2022/10/28 20:13:48;;;;;;;;;;;;;;;;;;10409499;28;19929;-79
2022/10/28 20:18:49;;;;;;;;;;;;;;;;;;10418830;28;19924;-77
2022/10/28 20:23:55;;;;;;;;;;;;;;;;;;10401935;28;19924;-79
2022/10/28 20:28:55;;;;;;;;;;;;;;;;;;10363563;28;19921;-77
2022/10/28 20:33:56;;;;;;;;;;;;;;;;;;10367077;28;19953;-78
2022/10/28 20:38:56;;;;;;;;;;;;;;;;;;10381974;28;20369;-77
2022/10/28 20:43:57;;;;;;;;;;;;;;;;;;10365079;28;19956;-79
2022/10/28 20:48:57;;;;;;;;;;;;;;;;;;10346318;28;19992;-77
2022/10/28 20:53:57;;;;;;;;;;;;;;;;;;10361898;28;20020;-76
2022/10/28 20:58:57;;;;;;;;;;;;;;;;;;10366939;28;20403;-77
2022/10/28 21:03:58;;;;;;;;;;;;;;;;;;10360046;28;20008;-77
2022/10/28 21:08:58;;;;;;;;;;;;;;;;;;10365251;28;19917;-77
2022/10/28 21:13:58;;;;;;;;;;;;;;;;;;10365409;28;19925;-79
2022/10/28 21:18:59;;;;;;;;;;;;;;;;;;10367696;28;20409;-77
2022/10/28 21:24:01;;;;;;;;;;;;;;;;;;10365758;28;19924;-80
2022/10/28 21:29:01;;;;;;;;;;;;;;;;;;10363420;28;19928;-79
2022/10/28 21:34:05;;;;;;;;;;;;;;;;;;10367198;28;19947;-81
2022/10/28 21:39:05;;;;;;;;;;;;;;;;;;10365905;28;19922;-80
2022/10/28 21:44:05;;;;;;;;;;;;;;;;;;10366733;28;19980;-78
2022/10/28 21:49:06;;;;;;;;;;;;;;;;;;10368086;28;19929;-79
2022/10/28 21:54:06;;;;;;;;;;;;;;;;;;10367416;28;19929;-78
2022/10/28 21:59:07;;;;;;;;;;;;;;;;;;10376848;28;19945;-79
2022/10/28 22:04:07;;;;;;;;;;;;;;;;;;10363821;28;19949;-78
2022/10/28 22:09:08;;;;;;;;;;;;;;;;;;10378045;28;19921;-80
2022/10/28 22:14:08;;;;;;;;;;;;;;;;;;10389802;28;19983;-79
2022/10/28 22:19:08;;;;;;;;;;;;;;;;;;10386599;28;19917;-78
2022/10/28 22:24:09;;;;;;;;;;;;;;;;;;10379681;28;19929;-78
2022/10/28 22:29:09;;;;;;;;;;;;;;;;;;10390328;28;19929;-79
2022/10/28 22:34:09;;;;;;;;;;;;;;;;;;10369660;28;19929;-78
2022/10/28 22:39:09;;;;;;;;;;;;;;;;;;10366825;28;20309;-79
2022/10/28 22:44:09;;;;;;;;;;;;;;;;;;10359616;28;19930;-78
2022/10/28 22:49:10;;;;;;;;;;;;;;;;;;10361981;28;19922;-79
2022/10/28 22:54:10;;;;;;;;;;;;;;;;;;10362924;28;19925;-78
2022/10/28 22:59:10;;;;;;;;;;;;;;;;;;10356694;28;19943;-76
2022/10/28 23:04:10;;;;;;;;;;;;;;;;;;10363518;28;19933;-79
2022/10/28 23:09:11;;;;;;;;;;;;;;;;;;10357324;28;19921;-77
2022/10/28 23:14:11;;;;;;;;;;;;;;;;;;10362944;28;19929;-78
2022/10/28 23:19:11;;;;;;;;;;;;;;;;;;10346449;28;19924;-79
2022/10/28 23:24:11;;;;;;;;;;;;;;;;;;10363189;28;20045;-79
2022/10/28 23:29:12;;;;;;;;;;;;;;;;;;10353242;28;19922;-79
2022/10/28 23:34:13;;;;;;;;;;;;;;;;;;10361547;28;19934;-79
2022/10/28 23:39:13;;;;;;;;;;;;;;;;;;10358808;28;19922;-79
2022/10/28 23:44:13;;;;;;;;;;;;;;;;;;10367368;28;20447;-79
2022/10/28 23:49:13;;;;;;;;;;;;;;;;;;10364651;28;20424;-77
2022/10/28 23:54:15;;;;;;;;;;;;;;;;;;10342422;28;20400;-77
2022/10/28 23:59:15;;;;;;;;;;;;;;;;;;10368621;28;20005;-78
